sensor_id;sensor_type;location;lat;lon;timestamp;pressure;altitude;pressure_sealevel;temperature;humidity
34081;BME280;20358;50.272;19.026;2023-03-03T00:00:31;98502.22;;;-1.05;60.14
34081;BME280;20358;50.272;19.026;2023-03-03T00:03:40;98502.25;;;-1.07;60.12
34081;BME280;20358;50.272;19.026;2023-03-03T00:06:46;98505.78;;;-1.11;60.26
34081;BME280;20358;50.272;19.026;2023-03-03T00:09:52;98510.16;;;-1.11;60.21
34081;BME280;20358;50.272;19.026;2023-03-03T00:12:58;98505.03;;;-1.14;60.41
34081;BME280;20358;50.272;19.026;2023-03-03T00:16:15;98503.31;;;-1.14;61.34
34081;BME280;20358;50.272;19.026;2023-03-03T00:19:37;98495.56;;;-1.15;61.63
34081;BME280;20358;50.272;19.026;2023-03-03T00:22:48;98495.59;;;-1.17;62.19
34081;BME280;20358;50.272;19.026;2023-03-03T00:25:55;98495.59;;;-1.17;62.13
34081;BME280;20358;50.272;19.026;2023-03-03T00:29:29;98493.03;;;-1.18;62.19
34081;BME280;20358;50.272;19.026;2023-03-03T00:32:43;98491.31;;;-1.18;62.33
34081;BME280;20358;50.272;19.026;2023-03-03T00:35:55;98486.84;;;-1.13;62.10
34081;BME280;20358;50.272;19.026;2023-03-03T00:39:17;98493.75;;;-1.12;61.66
34081;BME280;20358;50.272;19.026;2023-03-03T00:42:33;98493.75;;;-1.12;61.15
34081;BME280;20358;50.272;19.026;2023-03-03T00:45:43;98447.84;;;-1.41;61.29
34081;BME280;20358;50.272;19.026;2023-03-03T00:48:51;98486.06;;;-1.16;61.30
34081;BME280;20358;50.272;19.026;2023-03-03T00:52:00;98485.31;;;-1.20;61.16
34081;BME280;20358;50.272;19.026;2023-03-03T00:55:07;98487.06;;;-1.20;61.03
34081;BME280;20358;50.272;19.026;2023-03-03T00:58:13;98490.56;;;-1.23;60.92
34081;BME280;20358;50.272;19.026;2023-03-03T01:05:12;98490.56;;;-1.23;61.38
34081;BME280;20358;50.272;19.026;2023-03-03T01:08:23;98476.03;;;-1.29;61.86
34081;BME280;20358;50.272;19.026;2023-03-03T01:11:29;98486.25;;;-1.22;62.25
34081;BME280;20358;50.272;19.026;2023-03-03T01:14:36;98482.78;;;-1.23;62.01
34081;BME280;20358;50.272;19.026;2023-03-03T01:17:42;98471.78;;;-1.31;62.08
34081;BME280;20358;50.272;19.026;2023-03-03T01:20:49;98477.75;;;-1.29;62.20
34081;BME280;20358;50.272;19.026;2023-03-03T01:23:57;98470.06;;;-1.32;62.29
34081;BME280;20358;50.272;19.026;2023-03-03T01:27:03;98456.47;;;-1.40;62.87
34081;BME280;20358;50.272;19.026;2023-03-03T01:30:09;98459.00;;;-1.39;62.73
34081;BME280;20358;50.272;19.026;2023-03-03T01:33:17;98458.22;;;-1.42;62.70
34081;BME280;20358;50.272;19.026;2023-03-03T01:36:24;98460.00;;;-1.44;63.54
34081;BME280;20358;50.272;19.026;2023-03-03T01:39:34;98446.25;;;-1.46;63.31
34081;BME280;20358;50.272;19.026;2023-03-03T01:42:40;98440.19;;;-1.45;62.86
34081;BME280;20358;50.272;19.026;2023-03-03T01:49:41;98435.91;;;-1.46;63.67
34081;BME280;20358;50.272;19.026;2023-03-03T01:52:52;98434.09;;;-1.44;63.15
34081;BME280;20358;50.272;19.026;2023-03-03T01:56:02;98433.22;;;-1.43;62.80
34081;BME280;20358;50.272;19.026;2023-03-03T01:59:17;98426.34;;;-1.44;62.35
34081;BME280;20358;50.272;19.026;2023-03-03T02:02:28;98439.28;;;-1.44;62.76
34081;BME280;20358;50.272;19.026;2023-03-03T02:05:36;98440.16;;;-1.44;63.34
34081;BME280;20358;50.272;19.026;2023-03-03T02:08:51;98439.28;;;-1.44;63.48
34081;BME280;20358;50.272;19.026;2023-03-03T02:12:08;98435.81;;;-1.43;63.31
34081;BME280;20358;50.272;19.026;2023-03-03T02:15:21;98430.72;;;-1.46;62.82
34081;BME280;20358;50.272;19.026;2023-03-03T02:18:29;98440.03;;;-1.39;63.05
34081;BME280;20358;50.272;19.026;2023-03-03T02:21:34;98447.72;;;-1.36;62.62
34081;BME280;20358;50.272;19.026;2023-03-03T02:24:45;98441.75;;;-1.38;62.19
34081;BME280;20358;50.272;19.026;2023-03-03T02:28:00;98446.13;;;-1.40;62.10
34081;BME280;20358;50.272;19.026;2023-03-03T02:31:09;98451.38;;;-1.43;62.01
34081;BME280;20358;50.272;19.026;2023-03-03T02:34:18;98449.66;;;-1.44;62.35
34081;BME280;20358;50.272;19.026;2023-03-03T02:37:26;98448.91;;;-1.48;61.63
34081;BME280;20358;50.272;19.026;2023-03-03T02:40:38;98242.34;;;-2.73;61.89
34081;BME280;20358;50.272;19.026;2023-03-03T02:43:58;98456.81;;;-1.55;61.27
34081;BME280;20358;50.272;19.026;2023-03-03T02:47:08;98460.38;;;-1.59;61.19
34081;BME280;20358;50.272;19.026;2023-03-03T02:50:13;98462.16;;;-1.61;61.35
34081;BME280;20358;50.272;19.026;2023-03-03T02:53:20;98442.53;;;-1.70;61.70
34081;BME280;20358;50.272;19.026;2023-03-03T02:56:26;98451.03;;;-1.65;61.80
34081;BME280;20358;50.272;19.026;2023-03-03T02:59:36;98444.31;;;-1.73;61.93
34081;BME280;20358;50.272;19.026;2023-03-03T03:02:45;98447.69;;;-1.70;61.53
34081;BME280;20358;50.272;19.026;2023-03-03T03:05:52;98440.97;;;-1.77;61.32
34081;BME280;20358;50.272;19.026;2023-03-03T03:08:59;98445.34;;;-1.80;61.63
34081;BME280;20358;50.272;19.026;2023-03-03T03:12:05;98438.50;;;-1.81;61.66
34081;BME280;20358;50.272;19.026;2023-03-03T03:15:14;98441.00;;;-1.78;62.29
34081;BME280;20358;50.272;19.026;2023-03-03T03:18:20;98437.63;;;-1.82;62.00
34081;BME280;20358;50.272;19.026;2023-03-03T03:21:28;98397.72;;;-2.09;61.32
34081;BME280;20358;50.272;19.026;2023-03-03T03:24:35;98439.63;;;-1.93;61.63
34081;BME280;20358;50.272;19.026;2023-03-03T03:27:42;98440.59;;;-1.99;62.28
34081;BME280;20358;50.272;19.026;2023-03-03T03:30:52;98430.47;;;-2.08;62.80
34081;BME280;20358;50.272;19.026;2023-03-03T03:33:58;98439.94;;;-2.07;63.01
34081;BME280;20358;50.272;19.026;2023-03-03T03:37:05;98423.72;;;-2.15;63.16
34081;BME280;20358;50.272;19.026;2023-03-03T03:40:12;98429.72;;;-2.13;63.45
34081;BME280;20358;50.272;19.026;2023-03-03T03:43:18;98429.81;;;-2.16;64.29
34081;BME280;20358;50.272;19.026;2023-03-03T03:46:27;98428.03;;;-2.14;64.20
34081;BME280;20358;50.272;19.026;2023-03-03T03:49:34;98421.94;;;-2.11;64.54
34081;BME280;20358;50.272;19.026;2023-03-03T03:52:40;98420.25;;;-2.14;63.98
34081;BME280;20358;50.272;19.026;2023-03-03T03:55:47;98425.50;;;-2.17;64.46
34081;BME280;20358;50.272;19.026;2023-03-03T03:58:52;98428.19;;;-2.21;65.51
34081;BME280;20358;50.272;19.026;2023-03-03T04:02:02;98433.31;;;-2.20;65.54
34081;BME280;20358;50.272;19.026;2023-03-03T04:05:08;98429.91;;;-2.20;65.58
34081;BME280;20358;50.272;19.026;2023-03-03T04:08:15;98429.94;;;-2.22;65.27
34081;BME280;20358;50.272;19.026;2023-03-03T04:11:20;98430.78;;;-2.23;65.40
34081;BME280;20358;50.272;19.026;2023-03-03T04:14:28;98442.00;;;-2.21;65.71
34081;BME280;20358;50.272;19.026;2023-03-03T04:17:36;98445.31;;;-2.16;65.17
34081;BME280;20358;50.272;19.026;2023-03-03T04:20:43;98440.91;;;-2.12;64.96
34081;BME280;20358;50.272;19.026;2023-03-03T04:23:50;98444.28;;;-2.09;64.38
34081;BME280;20358;50.272;19.026;2023-03-03T04:26:56;98442.50;;;-2.07;63.01
34081;BME280;20358;50.272;19.026;2023-03-03T04:30:04;98436.41;;;-2.04;63.44
34081;BME280;20358;50.272;19.026;2023-03-03T04:33:15;98434.81;;;-2.08;62.75
34081;BME280;20358;50.272;19.026;2023-03-03T04:36:21;98436.41;;;-2.03;62.76
34081;BME280;20358;50.272;19.026;2023-03-03T04:39:28;98438.09;;;-2.02;61.81
34081;BME280;20358;50.272;19.026;2023-03-03T04:42:34;98444.22;;;-2.06;62.24
34081;BME280;20358;50.272;19.026;2023-03-03T04:45:43;98439.06;;;-2.06;61.66
34081;BME280;20358;50.272;19.026;2023-03-03T04:48:53;98431.31;;;-2.07;62.65
34081;BME280;20358;50.272;19.026;2023-03-03T04:52:01;98438.25;;;-2.08;62.43
34081;BME280;20358;50.272;19.026;2023-03-03T04:55:08;98435.72;;;-2.11;62.14
34081;BME280;20358;50.272;19.026;2023-03-03T04:58:16;98434.00;;;-2.12;61.57
34081;BME280;20358;50.272;19.026;2023-03-03T05:01:22;98416.88;;;-2.16;62.26
34081;BME280;20358;50.272;19.026;2023-03-03T05:04:32;98423.72;;;-2.15;62.52
34081;BME280;20358;50.272;19.026;2023-03-03T05:07:39;98393.25;;;-2.39;61.83
34081;BME280;20358;50.272;19.026;2023-03-03T05:10:45;98436.06;;;-2.26;62.38
34081;BME280;20358;50.272;19.026;2023-03-03T05:13:51;98444.97;;;-2.39;62.79
34081;BME280;20358;50.272;19.026;2023-03-03T05:16:58;98464.16;;;-2.49;63.82
34081;BME280;20358;50.272;19.026;2023-03-03T05:20:08;98471.69;;;-2.81;64.25
34081;BME280;20358;50.272;19.026;2023-03-03T05:23:15;98463.59;;;-3.10;63.88
34081;BME280;20358;50.272;19.026;2023-03-03T05:26:21;98456.22;;;-3.32;64.36
34081;BME280;20358;50.272;19.026;2023-03-03T05:29:28;98474.44;;;-3.38;64.81
34081;BME280;20358;50.272;19.026;2023-03-03T05:32:34;98473.75;;;-3.49;63.82
34081;BME280;20358;50.272;19.026;2023-03-03T05:35:44;98485.03;;;-3.54;64.24
34081;BME280;20358;50.272;19.026;2023-03-03T05:38:49;98498.81;;;-3.57;65.06
34081;BME280;20358;50.272;19.026;2023-03-03T05:41:56;98485.00;;;-3.53;65.78
34081;BME280;20358;50.272;19.026;2023-03-03T05:45:02;98490.00;;;-3.44;65.37
34081;BME280;20358;50.272;19.026;2023-03-03T05:48:09;98493.31;;;-3.36;65.15
34081;BME280;20358;50.272;19.026;2023-03-03T05:51:17;98464.41;;;-3.56;63.95
34081;BME280;20358;50.272;19.026;2023-03-03T05:54:24;98488.81;;;-3.23;64.88
34081;BME280;20358;50.272;19.026;2023-03-03T05:57:30;98512.72;;;-3.12;64.78
34081;BME280;20358;50.272;19.026;2023-03-03T06:00:37;98504.88;;;-3.07;63.65
34081;BME280;20358;50.272;19.026;2023-03-03T06:03:43;98506.59;;;-3.06;64.30
34081;BME280;20358;50.272;19.026;2023-03-03T06:06:52;98512.63;;;-3.06;63.79
34081;BME280;20358;50.272;19.026;2023-03-03T06:09:57;98520.28;;;-3.01;63.57
34081;BME280;20358;50.272;19.026;2023-03-03T06:13:06;98522.75;;;-2.95;63.20
34081;BME280;20358;50.272;19.026;2023-03-03T06:16:12;98517.38;;;-2.85;64.53
34081;BME280;20358;50.272;19.026;2023-03-03T06:19:18;98524.09;;;-2.75;63.61
34081;BME280;20358;50.272;19.026;2023-03-03T06:22:26;98513.53;;;-2.64;62.85
34081;BME280;20358;50.272;19.026;2023-03-03T06:25:33;98524.66;;;-2.59;63.52
34081;BME280;20358;50.272;19.026;2023-03-03T06:28:38;98527.22;;;-2.58;62.69
34081;BME280;20358;50.272;19.026;2023-03-03T06:31:45;98515.31;;;-2.66;63.28
34081;BME280;20358;50.272;19.026;2023-03-03T06:34:50;98515.22;;;-2.62;62.79
34081;BME280;20358;50.272;19.026;2023-03-03T06:37:59;98509.22;;;-2.62;61.68
34081;BME280;20358;50.272;19.026;2023-03-03T06:41:05;98502.38;;;-2.65;62.05
34081;BME280;20358;50.272;19.026;2023-03-03T06:44:11;98526.59;;;-2.70;62.07
34081;BME280;20358;50.272;19.026;2023-03-03T06:47:18;98543.09;;;-2.77;61.14
34081;BME280;20358;50.272;19.026;2023-03-03T06:50:24;98544.25;;;-2.93;61.04
34081;BME280;20358;50.272;19.026;2023-03-03T06:53:33;98551.34;;;-3.04;62.10
34081;BME280;20358;50.272;19.026;2023-03-03T06:56:41;98544.66;;;-3.18;60.90
34081;BME280;20358;50.272;19.026;2023-03-03T06:59:51;98530.94;;;-3.20;62.21
34081;BME280;20358;50.272;19.026;2023-03-03T07:03:05;98535.97;;;-3.13;61.31
34081;BME280;20358;50.272;19.026;2023-03-03T07:06:21;98544.44;;;-3.05;61.35
34081;BME280;20358;50.272;19.026;2023-03-03T07:09:32;98543.63;;;-3.06;62.26
34081;BME280;20358;50.272;19.026;2023-03-03T07:12:38;98543.75;;;-3.15;62.40
34081;BME280;20358;50.272;19.026;2023-03-03T07:15:44;98525.03;;;-3.29;61.39
34081;BME280;20358;50.272;19.026;2023-03-03T07:18:52;98529.56;;;-3.40;62.19
34081;BME280;20358;50.272;19.026;2023-03-03T07:22:13;98533.13;;;-3.49;63.32
34081;BME280;20358;50.272;19.026;2023-03-03T07:25:29;98529.69;;;-3.48;64.22
34081;BME280;20358;50.272;19.026;2023-03-03T07:28:40;98555.38;;;-3.42;64.10
34081;BME280;20358;50.272;19.026;2023-03-03T07:31:49;98559.69;;;-3.41;64.55
34081;BME280;20358;50.272;19.026;2023-03-03T07:34:56;98552.78;;;-3.42;64.38
34081;BME280;20358;50.272;19.026;2023-03-03T07:38:02;98418.19;;;-4.26;65.57
34081;BME280;20358;50.272;19.026;2023-03-03T07:41:20;98544.16;;;-3.38;65.55
34081;BME280;20358;50.272;19.026;2023-03-03T07:44:34;98535.63;;;-3.43;64.38
34081;BME280;20358;50.272;19.026;2023-03-03T07:47:42;98540.50;;;-3.25;64.13
34081;BME280;20358;50.272;19.026;2023-03-03T07:50:48;98543.31;;;-3.40;64.97
34081;BME280;20358;50.272;19.026;2023-03-03T07:54:25;98560.75;;;-3.54;64.80
34081;BME280;20358;50.272;19.026;2023-03-03T07:57:37;98585.72;;;-3.56;65.80
34081;BME280;20358;50.272;19.026;2023-03-03T08:04:47;98481.28;;;-3.90;65.36
34081;BME280;20358;50.272;19.026;2023-03-03T08:08:02;98566.53;;;-3.38;65.00
34081;BME280;20358;50.272;19.026;2023-03-03T08:11:20;98572.63;;;-3.44;64.58
34081;BME280;20358;50.272;19.026;2023-03-03T08:14:31;98558.84;;;-3.43;64.75
34081;BME280;20358;50.272;19.026;2023-03-03T08:17:41;98550.16;;;-3.39;65.53
34081;BME280;20358;50.272;19.026;2023-03-03T08:20:56;98516.31;;;-3.74;65.93
34081;BME280;20358;50.272;19.026;2023-03-03T08:24:04;98572.50;;;-3.35;65.77
34081;BME280;20358;50.272;19.026;2023-03-03T08:27:11;98562.97;;;-3.31;65.87
34081;BME280;20358;50.272;19.026;2023-03-03T08:30:22;98562.91;;;-3.27;66.38
34081;BME280;20358;50.272;19.026;2023-03-03T08:33:28;98566.28;;;-3.23;65.37
34081;BME280;20358;50.272;19.026;2023-03-03T08:36:34;98563.13;;;-3.40;66.50
34081;BME280;20358;50.272;19.026;2023-03-03T08:39:41;98598.16;;;-3.26;66.32
34081;BME280;20358;50.272;19.026;2023-03-03T08:42:47;98585.25;;;-3.24;66.80
34081;BME280;20358;50.272;19.026;2023-03-03T08:45:58;98588.53;;;-3.14;66.18
34081;BME280;20358;50.272;19.026;2023-03-03T08:49:06;98596.13;;;-3.05;66.87
34081;BME280;20358;50.272;19.026;2023-03-03T08:52:12;98583.97;;;-3.00;67.06
34081;BME280;20358;50.272;19.026;2023-03-03T08:55:18;98577.59;;;-3.32;67.36
34081;BME280;20358;50.272;19.026;2023-03-03T08:58:24;98587.59;;;-3.10;67.00
34081;BME280;20358;50.272;19.026;2023-03-03T09:01:39;98578.91;;;-3.03;68.36
34081;BME280;20358;50.272;19.026;2023-03-03T09:04:46;98559.00;;;-2.98;67.64
34081;BME280;20358;50.272;19.026;2023-03-03T09:07:53;98568.16;;;-2.82;66.92
34081;BME280;20358;50.272;19.026;2023-03-03T09:11:00;98577.59;;;-2.78;66.84
34081;BME280;20358;50.272;19.026;2023-03-03T09:14:10;98566.47;;;-2.83;67.60
34081;BME280;20358;50.272;19.026;2023-03-03T09:17:24;98563.91;;;-2.83;66.88
34081;BME280;20358;50.272;19.026;2023-03-03T09:20:36;98571.41;;;-2.71;67.54
34081;BME280;20358;50.272;19.026;2023-03-03T09:23:53;98559.25;;;-2.66;67.20
34081;BME280;20358;50.272;19.026;2023-03-03T09:26:59;98573.88;;;-2.64;66.46
34081;BME280;20358;50.272;19.026;2023-03-03T09:30:31;98572.00;;;-2.54;67.27
34081;BME280;20358;50.272;19.026;2023-03-03T09:33:45;98552.06;;;-2.49;67.18
34081;BME280;20358;50.272;19.026;2023-03-03T09:36:54;98562.31;;;-2.46;66.97
34081;BME280;20358;50.272;19.026;2023-03-03T09:40:29;98551.88;;;-2.40;66.97
34081;BME280;20358;50.272;19.026;2023-03-03T09:44:10;98564.66;;;-2.32;66.27
34081;BME280;20358;50.272;19.026;2023-03-03T09:48:18;98576.56;;;-2.24;66.63
34081;BME280;20358;50.272;19.026;2023-03-03T09:51:58;98586.16;;;-2.29;66.59
34081;BME280;20358;50.272;19.026;2023-03-03T09:55:34;98592.19;;;-2.30;66.07
34081;BME280;20358;50.272;19.026;2023-03-03T09:59:03;98599.09;;;-2.30;65.97
34081;BME280;20358;50.272;19.026;2023-03-03T10:02:36;98587.84;;;-2.28;66.67
34081;BME280;20358;50.272;19.026;2023-03-03T10:06:00;98571.66;;;-2.37;66.73
34081;BME280;20358;50.272;19.026;2023-03-03T10:09:43;98553.81;;;-2.51;67.13
34081;BME280;20358;50.272;19.026;2023-03-03T10:13:17;98584.56;;;-2.36;66.35
34081;BME280;20358;50.272;19.026;2023-03-03T10:16:48;98581.06;;;-2.33;66.47
34081;BME280;20358;50.272;19.026;2023-03-03T10:20:22;98546.94;;;-2.52;65.95
34081;BME280;20358;50.272;19.026;2023-03-03T10:23:54;98610.09;;;-2.18;65.88
34081;BME280;20358;50.272;19.026;2023-03-03T10:27:25;98602.44;;;-2.24;66.55
34081;BME280;20358;50.272;19.026;2023-03-03T10:30:52;98598.97;;;-2.24;66.71
34081;BME280;20358;50.272;19.026;2023-03-03T10:34:38;98609.28;;;-2.23;66.55
34081;BME280;20358;50.272;19.026;2023-03-03T10:38:30;98611.25;;;-2.34;66.12
34081;BME280;20358;50.272;19.026;2023-03-03T10:41:55;98600.00;;;-2.31;65.99
34081;BME280;20358;50.272;19.026;2023-03-03T10:45:42;98589.50;;;-2.24;65.74
34081;BME280;20358;50.272;19.026;2023-03-03T10:49:24;98592.78;;;-2.16;65.57
34081;BME280;20358;50.272;19.026;2023-03-03T10:52:45;98589.19;;;-2.09;65.73
34081;BME280;20358;50.272;19.026;2023-03-03T10:56:11;98578.72;;;-2.03;65.72
34081;BME280;20358;50.272;19.026;2023-03-03T10:59:43;98598.91;;;-1.78;64.95
34081;BME280;20358;50.272;19.026;2023-03-03T11:03:36;98600.88;;;-1.89;64.62
34081;BME280;20358;50.272;19.026;2023-03-03T11:07:08;98596.91;;;-2.06;65.04
34081;BME280;20358;50.272;19.026;2023-03-03T11:10:33;98578.78;;;-2.06;64.54
34081;BME280;20358;50.272;19.026;2023-03-03T11:14:02;98582.38;;;-2.13;65.68
34081;BME280;20358;50.272;19.026;2023-03-03T11:17:24;98587.34;;;-2.04;65.68
34081;BME280;20358;50.272;19.026;2023-03-03T11:20:52;98580.28;;;-1.96;65.17
34081;BME280;20358;50.272;19.026;2023-03-03T11:24:18;98585.13;;;-1.80;65.20
34081;BME280;20358;50.272;19.026;2023-03-03T11:27:59;98569.66;;;-1.83;64.01
34081;BME280;20358;50.272;19.026;2023-03-03T11:31:25;98585.13;;;-1.80;64.69
34081;BME280;20358;50.272;19.026;2023-03-03T11:34:50;98583.38;;;-1.78;63.98
34081;BME280;20358;50.272;19.026;2023-03-03T11:38:19;98573.75;;;-1.73;64.15
34081;BME280;20358;50.272;19.026;2023-03-03T11:41:36;98572.53;;;-1.57;64.24
34081;BME280;20358;50.272;19.026;2023-03-03T11:44:59;98571.44;;;-1.46;63.86
34081;BME280;20358;50.272;19.026;2023-03-03T11:48:33;98573.69;;;-1.32;63.80
34081;BME280;20358;50.272;19.026;2023-03-03T11:51:53;98581.25;;;-1.23;63.29
34081;BME280;20358;50.272;19.026;2023-03-03T11:55:15;98581.22;;;-1.21;63.47
34081;BME280;20358;50.272;19.026;2023-03-03T11:58:30;98573.47;;;-1.23;63.31
34081;BME280;20358;50.272;19.026;2023-03-03T12:01:51;98565.50;;;-1.14;63.55
34081;BME280;20358;50.272;19.026;2023-03-03T12:05:07;98571.69;;;-1.21;63.06
34081;BME280;20358;50.272;19.026;2023-03-03T12:08:34;98564.09;;;-1.29;63.78
34081;BME280;20358;50.272;19.026;2023-03-03T12:12:00;98575.41;;;-1.31;63.69
34081;BME280;20358;50.272;19.026;2023-03-03T12:15:23;98571.88;;;-1.27;64.18
34081;BME280;20358;50.272;19.026;2023-03-03T12:19:02;98576.00;;;-1.20;63.99
34081;BME280;20358;50.272;19.026;2023-03-03T12:22:29;98555.91;;;-1.47;63.65
34081;BME280;20358;50.272;19.026;2023-03-03T12:25:42;98549.84;;;-1.46;64.60
34081;BME280;20358;50.272;19.026;2023-03-03T12:29:03;98553.31;;;-1.47;63.99
34081;BME280;20358;50.272;19.026;2023-03-03T12:32:26;98556.94;;;-1.54;64.35
34081;BME280;20358;50.272;19.026;2023-03-03T12:35:57;98560.63;;;-1.64;64.55
34081;BME280;20358;50.272;19.026;2023-03-03T12:39:24;98548.22;;;-1.50;64.22
34081;BME280;20358;50.272;19.026;2023-03-03T12:42:52;98546.53;;;-1.53;63.15
34081;BME280;20358;50.272;19.026;2023-03-03T12:46:19;98548.31;;;-1.53;61.73
34081;BME280;20358;50.272;19.026;2023-03-03T12:49:38;98551.19;;;-1.30;61.81
34081;BME280;20358;50.272;19.026;2023-03-03T12:53:22;98538.81;;;-1.19;60.49
34081;BME280;20358;50.272;19.026;2023-03-03T12:56:39;98546.13;;;-1.01;60.01
34081;BME280;20358;50.272;19.026;2023-03-03T13:00:17;98541.81;;;-1.00;60.60
34081;BME280;20358;50.272;19.026;2023-03-03T13:03:39;98546.31;;;-1.07;62.06
34081;BME280;20358;50.272;19.026;2023-03-03T13:07:05;98548.53;;;-0.92;61.82
34081;BME280;20358;50.272;19.026;2023-03-03T13:10:26;98543.94;;;-1.16;60.58
34081;BME280;20358;50.272;19.026;2023-03-03T13:13:49;98534.34;;;-1.12;60.94
34081;BME280;20358;50.272;19.026;2023-03-03T13:17:14;98526.38;;;-1.05;61.60
34081;BME280;20358;50.272;19.026;2023-03-03T13:20:39;98529.59;;;-0.95;61.32
34081;BME280;20358;50.272;19.026;2023-03-03T13:24:00;98537.34;;;-0.94;60.82
34081;BME280;20358;50.272;19.026;2023-03-03T13:27:14;98537.06;;;-0.83;61.11
34081;BME280;20358;50.272;19.026;2023-03-03T13:30:28;98562.34;;;-0.93;61.58
34081;BME280;20358;50.272;19.026;2023-03-03T13:33:46;98532.97;;;-0.92;60.93
34081;BME280;20358;50.272;19.026;2023-03-03T13:37:04;98541.75;;;-0.97;61.14
34081;BME280;20358;50.272;19.026;2023-03-03T13:40:23;98536.22;;;-1.17;60.90
34081;BME280;20358;50.272;19.026;2023-03-03T13:43:39;98537.22;;;-1.23;61.37
34081;BME280;20358;50.272;19.026;2023-03-03T13:47:02;98532.03;;;-1.23;61.52
34081;BME280;20358;50.272;19.026;2023-03-03T13:50:24;98518.88;;;-1.15;61.19
34081;BME280;20358;50.272;19.026;2023-03-03T13:53:50;98533.09;;;-0.98;60.76
34081;BME280;20358;50.272;19.026;2023-03-03T13:57:24;98536.44;;;-0.93;60.68
34081;BME280;20358;50.272;19.026;2023-03-03T14:00:54;98532.44;;;-1.06;60.74
34081;BME280;20358;50.272;19.026;2023-03-03T14:04:12;98524.13;;;-1.17;60.52
34081;BME280;20358;50.272;19.026;2023-03-03T14:07:35;98527.72;;;-1.24;60.41
34081;BME280;20358;50.272;19.026;2023-03-03T14:10:56;98537.06;;;-1.17;60.44
34081;BME280;20358;50.272;19.026;2023-03-03T14:14:24;98528.44;;;-1.19;60.54
34081;BME280;20358;50.272;19.026;2023-03-03T14:17:54;98516.34;;;-1.17;59.98
34081;BME280;20358;50.272;19.026;2023-03-03T14:21:26;98518.94;;;-1.18;60.13
34081;BME280;20358;50.272;19.026;2023-03-03T14:24:54;98516.28;;;-1.14;60.14
34081;BME280;20358;50.272;19.026;2023-03-03T14:28:11;98510.44;;;-1.23;60.12
34081;BME280;20358;50.272;19.026;2023-03-03T14:31:22;98528.44;;;-1.19;60.15
34081;BME280;20358;50.272;19.026;2023-03-03T14:34:40;98522.19;;;-1.09;60.20
34081;BME280;20358;50.272;19.026;2023-03-03T14:37:45;98521.59;;;-1.20;60.21
34081;BME280;20358;50.272;19.026;2023-03-03T14:41:11;98514.63;;;-1.18;60.23
34081;BME280;20358;50.272;19.026;2023-03-03T14:44:34;98515.03;;;-1.35;60.29
34081;BME280;20358;50.272;19.026;2023-03-03T14:47:45;98436.25;;;-1.97;60.81
34081;BME280;20358;50.272;19.026;2023-03-03T14:50:54;98511.50;;;-1.67;60.70
34081;BME280;20358;50.272;19.026;2023-03-03T14:54:13;98524.50;;;-1.70;61.16
34081;BME280;20358;50.272;19.026;2023-03-03T14:57:38;98512.19;;;-1.59;60.71
34081;BME280;20358;50.272;19.026;2023-03-03T15:01:12;98525.88;;;-1.54;61.03
34081;BME280;20358;50.272;19.026;2023-03-03T15:04:26;98525.69;;;-1.47;61.22
34081;BME280;20358;50.272;19.026;2023-03-03T15:07:36;98508.97;;;-1.70;61.48
34081;BME280;20358;50.272;19.026;2023-03-03T15:10:44;98522.34;;;-2.30;63.04
34081;BME280;20358;50.272;19.026;2023-03-03T15:13:51;98513.47;;;-2.60;64.43
34081;BME280;20358;50.272;19.026;2023-03-03T15:17:19;98480.47;;;-2.47;63.37
34081;BME280;20358;50.272;19.026;2023-03-03T15:20:38;98512.06;;;-2.33;63.39
34081;BME280;20358;50.272;19.026;2023-03-03T15:23:55;98519.81;;;-2.33;63.82
34081;BME280;20358;50.272;19.026;2023-03-03T15:27:17;98507.41;;;-2.16;62.92
34081;BME280;20358;50.272;19.026;2023-03-03T15:30:34;98498.50;;;-2.03;63.11
34081;BME280;20358;50.272;19.026;2023-03-03T15:33:58;98506.88;;;-1.92;63.25
34081;BME280;20358;50.272;19.026;2023-03-03T15:37:22;98504.00;;;-2.18;64.18
34081;BME280;20358;50.272;19.026;2023-03-03T15:40:48;98511.63;;;-2.12;63.14
34081;BME280;20358;50.272;19.026;2023-03-03T15:44:08;98512.53;;;-2.14;63.71
34081;BME280;20358;50.272;19.026;2023-03-03T15:47:39;98508.19;;;-2.12;63.46
34081;BME280;20358;50.272;19.026;2023-03-03T15:51:15;98509.72;;;-2.04;62.49
34081;BME280;20358;50.272;19.026;2023-03-03T15:54:41;98516.44;;;-1.95;62.97
34081;BME280;20358;50.272;19.026;2023-03-03T15:58:11;98517.16;;;-1.88;62.72
34081;BME280;20358;50.272;19.026;2023-03-03T16:01:34;98500.00;;;-1.93;62.28
34081;BME280;20358;50.272;19.026;2023-03-03T16:04:57;98507.66;;;-1.88;63.04
34081;BME280;20358;50.272;19.026;2023-03-03T16:08:17;98515.34;;;-1.85;62.80
34081;BME280;20358;50.272;19.026;2023-03-03T16:11:35;98515.34;;;-1.85;62.98
34081;BME280;20358;50.272;19.026;2023-03-03T16:15:05;98517.16;;;-1.88;63.33
34081;BME280;20358;50.272;19.026;2023-03-03T16:18:36;98517.03;;;-1.82;62.76
34081;BME280;20358;50.272;19.026;2023-03-03T16:22:03;98513.97;;;-2.01;62.97
34081;BME280;20358;50.272;19.026;2023-03-03T16:25:51;98513.66;;;-1.86;62.79
34081;BME280;20358;50.272;19.026;2023-03-03T16:29:29;98516.81;;;-1.73;63.08
34081;BME280;20358;50.272;19.026;2023-03-03T16:32:48;98514.16;;;-1.70;63.29
34081;BME280;20358;50.272;19.026;2023-03-03T16:36:04;98521.78;;;-1.64;62.78
34081;BME280;20358;50.272;19.026;2023-03-03T16:39:23;98494.41;;;-1.74;63.42
34081;BME280;20358;50.272;19.026;2023-03-03T16:42:50;98520.06;;;-1.64;63.35
34081;BME280;20358;50.272;19.026;2023-03-03T16:46:08;98514.09;;;-1.67;63.29
34081;BME280;20358;50.272;19.026;2023-03-03T16:49:32;98527.72;;;-1.59;63.15
34081;BME280;20358;50.272;19.026;2023-03-03T16:52:55;98526.75;;;-1.55;63.09
34081;BME280;20358;50.272;19.026;2023-03-03T16:56:16;98523.97;;;-1.46;63.64
34081;BME280;20358;50.272;19.026;2023-03-03T16:59:46;98517.13;;;-1.50;63.36
34081;BME280;20358;50.272;19.026;2023-03-03T17:03:33;98514.47;;;-1.47;63.53
34081;BME280;20358;50.272;19.026;2023-03-03T17:06:51;98519.06;;;-1.58;64.18
34081;BME280;20358;50.272;19.026;2023-03-03T17:10:24;98513.16;;;-1.65;64.16
34081;BME280;20358;50.272;19.026;2023-03-03T17:13:56;98521.84;;;-1.67;64.40
34081;BME280;20358;50.272;19.026;2023-03-03T17:17:31;98509.19;;;-1.79;64.27